Time;durP1;ratioP1;P1;durP2;ratioP2;P2;SDS_P1;SDS_P2;PMS_P1;PMS_P2;Temp;Humidity;BMP_temperature;BMP_pressure;BME280_temperature;BME280_humidity;BME280_pressure;Samples;Min_cycle;Max_cycle;Signal;HPM_P1;HPM_P2
2022/12/14 02:25:23;;;;;;;28.67;13.45;;;;;;;-6.20;100.00;94494.09;1045752;28;20045;-68
2022/12/14 02:26:31;;;;;;;27.80;12.75;;;;;;;-6.18;100.00;94487.03;1044049;28;20036;-67
2022/12/14 02:27:23;;;;;;;28.73;13.05;;;;;;;-6.17;100.00;94488.63;1028236;28;20062;-67
2022/12/14 02:28:12;;;;;;;30.38;14.38;;;;;;;-6.12;100.00;94485.47;1027662;28;20825;-67
2022/12/14 02:28:59;;;;;;;26.85;13.20;;;;;;;-6.17;100.00;94482.69;1038376;28;20032;-67
2022/12/14 02:29:54;;;;;;;28.90;14.38;;;;;;;-6.17;100.00;94482.69;1039332;28;20056;-67
2022/12/14 02:30:27;;;;;;;29.20;14.88;;;;;;;-6.10;100.00;94486.09;1035011;28;20110;-69
2022/12/14 02:31:19;;;;;;;34.05;15.23;;;;;;;-6.09;100.00;94481.78;1030499;28;20025;-69
2022/12/14 02:31:53;;;;;;;33.10;15.45;;;;;;;-6.13;100.00;94473.72;1026726;28;20050;-67
2022/12/14 02:32:29;;;;;;;26.05;14.00;;;;;;;-6.17;100.00;94475.03;1030515;28;20030;-67
2022/12/14 02:33:24;;;;;;;29.75;15.30;;;;;;;-6.18;100.00;94466.59;1030498;28;20029;-66
2022/12/14 02:34:04;;;;;;;28.30;14.60;;;;;;;-6.16;100.00;94476.63;1034440;28;20434;-67
2022/12/14 02:34:52;;;;;;;29.83;15.07;;;;;;;-6.15;100.00;94479.97;1035120;28;20565;-65
2022/12/14 02:35:25;;;;;;;29.58;13.82;;;;;;;-6.13;100.00;94483.13;1038457;28;20556;-67
2022/12/14 02:36:22;;;;;;;30.27;15.30;;;;;;;-6.19;100.00;94480.34;1038385;28;20029;-67
2022/12/14 02:37:15;;;;;;;30.42;15.93;;;;;;;-6.17;100.00;94473.31;1031451;28;20084;-67
2022/12/14 02:38:30;;;;;;;26.73;14.48;;;;;;;-6.16;100.00;94471.53;1034605;28;20379;-67
2022/12/14 02:39:06;;;;;;;27.25;14.50;;;;;;;-6.22;100.00;94451.88;1026293;28;20031;-67
2022/12/14 02:40:00;;;;;;;33.38;15.60;;;;;;;-6.19;100.00;94452.28;1030095;28;20104;-68
2022/12/14 02:40:40;;;;;;;29.13;14.20;;;;;;;-6.24;100.00;94438.50;1021130;29;20090;-67
2022/12/14 02:41:24;;;;;;;29.02;13.98;;;;;;;-6.14;100.00;94440.69;1017402;29;20024;-68
2022/12/14 02:42:07;;;;;;;31.10;16.02;;;;;;;-6.15;100.00;94437.38;1018169;29;20035;-64
2022/12/14 02:42:51;;;;;;;32.78;14.60;;;;;;;-6.13;100.00;94435.41;1014091;29;20036;-66
2022/12/14 02:43:31;;;;;;;28.33;13.82;;;;;;;-6.14;100.00;94431.25;1012245;29;20503;-66
2022/12/14 02:44:26;;;;;;;32.13;16.25;;;;;;;-6.14;100.00;94431.25;1004546;29;20036;-68
2022/12/14 02:45:34;;;;;;;29.58;14.88;;;;;;;-6.17;100.00;94422.25;1020489;28;20513;-66
2022/12/14 02:46:23;;;;;;;33.05;13.88;;;;;;;-6.17;100.00;94424.00;1034432;28;20017;-67
2022/12/14 02:47:14;;;;;;;28.58;14.38;;;;;;;-6.21;100.00;94410.03;1030913;28;20023;-66
2022/12/14 02:47:53;;;;;;;27.08;14.23;;;;;;;-6.13;100.00;94421.88;1030584;28;20793;-67
2022/12/14 02:48:25;;;;;;;30.42;16.15;;;;;;;-6.18;100.00;94409.66;1028086;28;20514;-64
2022/12/14 02:49:23;;;;;;;30.45;15.48;;;;;;;-6.14;100.00;94421.06;1031252;28;20562;-67
2022/12/14 02:50:22;;;;;;;32.33;14.88;;;;;;;-6.10;100.00;94424.81;1034709;28;20029;-67
2022/12/14 02:51:01;;;;;;;28.30;13.68;;;;;;;-6.13;100.00;94415.00;1035486;28;20132;-68
2022/12/14 02:51:49;;;;;;;30.20;14.68;;;;;;;-6.15;100.00;94414.38;1030172;28;20082;-67
2022/12/14 02:52:45;;;;;;;30.88;15.13;;;;;;;-6.14;100.00;94421.06;1030409;28;20491;-67
2022/12/14 02:53:22;;;;;;;32.33;15.10;;;;;;;-6.25;100.00;94413.97;1036653;28;20574;-67
2022/12/14 02:54:01;;;;;;;27.38;13.70;;;;;;;-6.20;100.00;94426.94;1036205;28;20037;-67
2022/12/14 02:54:38;;;;;;;33.00;16.73;;;;;;;-6.22;100.00;94423.78;1035193;28;20040;-67
2022/12/14 02:55:21;;;;;;;35.83;16.73;;;;;;;-6.19;100.00;94423.41;1031275;28;20022;-67
2022/12/14 02:55:52;;;;;;;28.60;14.65;;;;;;;-6.21;100.00;94422.81;1026378;28;20504;-66
2022/12/14 02:56:28;;;;;;;27.65;14.75;;;;;;;-6.21;100.00;94426.13;1031599;28;20050;-67
2022/12/14 02:57:04;;;;;;;32.05;15.88;;;;;;;-6.29;100.00;94416.09;1031312;28;20273;-68
2022/12/14 02:57:47;;;;;;;27.50;14.50;;;;;;;-6.28;100.00;94411.78;1035145;28;20045;-68
2022/12/14 02:58:22;;;;;;;27.90;14.43;;;;;;;-6.29;100.00;94416.09;1039311;28;20386;-67
2022/12/14 02:58:53;;;;;;;30.05;15.95;;;;;;;-6.26;100.00;94418.28;1035354;28;20022;-68
2022/12/14 02:59:26;;;;;;;30.83;15.37;;;;;;;-6.18;100.00;94428.31;1035578;28;20034;-66
2022/12/14 02:59:59;;;;;;;30.67;16.05;;;;;;;-6.23;100.00;94422.22;1036051;28;20503;-67
2022/12/14 03:00:32;;;;;;;27.95;14.15;;;;;;;-6.20;100.00;94434.59;1039921;28;20068;-67
2022/12/14 03:01:02;;;;;;;33.25;15.30;;;;;;;-6.21;100.00;94430.47;1035257;28;20022;-67
2022/12/14 03:01:32;;;;;;;33.33;15.27;;;;;;;-6.17;100.00;94436.75;1031343;28;20034;-68
2022/12/14 03:02:03;;;;;;;29.77;16.03;;;;;;;-6.19;100.00;94428.50;1027313;28;20034;-66
2022/12/14 03:02:35;;;;;;;34.20;15.93;;;;;;;-6.30;100.00;94426.53;1035071;28;20044;-67
2022/12/14 03:03:05;;;;;;;33.58;15.68;;;;;;;-6.30;100.00;94431.63;1035390;28;20037;-67
2022/12/14 03:03:36;;;;;;;33.87;15.77;;;;;;;-6.26;100.00;94443.03;1039289;28;20029;-67
2022/12/14 03:04:07;;;;;;;33.10;17.33;;;;;;;-6.22;100.00;94449.31;1039511;28;20017;-69
2022/12/14 03:04:46;;;;;;;28.37;15.33;;;;;;;-6.21;100.00;94445.78;1035162;28;20029;-64
2022/12/14 03:05:16;;;;;;;30.88;16.20;;;;;;;-6.23;100.00;94443.44;1027454;28;20532;-67
2022/12/14 03:05:55;;;;;;;35.30;15.97;;;;;;;-6.20;100.00;94452.47;1026365;28;20034;-67
2022/12/14 03:06:25;;;;;;;29.67;15.32;;;;;;;-6.17;100.00;94446.97;1031570;28;20054;-67
2022/12/14 03:06:58;;;;;;;28.80;15.00;;;;;;;-6.15;100.00;94449.34;1038879;28;20057;-66
2022/12/14 03:07:51;;;;;;;37.55;17.13;;;;;;;-6.14;100.00;94451.69;1039512;28;20530;-67
2022/12/14 03:08:22;;;;;;;30.52;15.38;;;;;;;-6.10;100.00;94460.56;1031200;28;20030;-67
2022/12/14 03:09:03;;;;;;;31.13;16.13;;;;;;;-6.08;100.00;94457.81;1031374;28;20030;-67
2022/12/14 03:09:33;;;;;;;29.10;15.20;;;;;;;-6.06;100.00;94460.97;1035091;28;20034;-66
2022/12/14 03:10:19;;;;;;;31.47;15.10;;;;;;;-6.05;100.00;94463.31;1038312;28;20603;-67
2022/12/14 03:10:58;;;;;;;32.78;15.45;;;;;;;-6.05;100.00;94459.97;1047142;28;20020;-67
2022/12/14 03:12:04;;;;;;;31.92;14.77;;;;;;;-6.02;100.00;94460.38;1039672;28;20029;-67
2022/12/14 03:12:35;;;;;;;29.45;14.77;;;;;;;-6.08;100.00;94447.59;1035175;28;20837;-66
2022/12/14 03:13:38;;;;;;;27.40;15.20;;;;;;;-6.07;100.00;94438.94;1033548;28;20014;-67
2022/12/14 03:14:16;;;;;;;31.48;14.57;;;;;;;-6.05;100.00;94447.22;1039776;28;20400;-67
2022/12/14 03:14:49;;;;;;;28.73;13.98;;;;;;;-6.06;100.00;94443.09;1040998;28;20030;-68
2022/12/14 03:15:20;;;;;;;31.52;14.93;;;;;;;-6.06;100.00;94448.19;1036283;28;20026;-66
2022/12/14 03:16:03;;;;;;;30.37;15.67;;;;;;;-6.09;100.00;94440.91;1039418;28;20627;-66
2022/12/14 03:16:36;;;;;;;31.02;15.68;;;;;;;-6.06;100.00;94443.09;1039146;28;20033;-68
2022/12/14 03:17:13;;;;;;;30.83;15.15;;;;;;;-6.06;100.00;94438.00;1031645;28;20027;-67
2022/12/14 03:17:44;;;;;;;34.38;16.42;;;;;;;-6.03;100.00;94442.72;1031201;28;20026;-67
2022/12/14 03:18:16;;;;;;;30.38;15.00;;;;;;;-6.07;100.00;94432.09;1027642;28;20027;-67
2022/12/14 03:18:56;;;;;;;34.33;17.02;;;;;;;-6.09;100.00;94438.38;1035204;28;20042;-67
2022/12/14 03:19:33;;;;;;;30.10;14.05;;;;;;;-6.09;100.00;94428.94;1035250;28;20060;-67
2022/12/14 03:20:15;;;;;;;29.40;15.20;;;;;;;-6.10;100.00;94427.38;1037501;28;20086;-68
2022/12/14 03:20:47;;;;;;;33.15;15.32;;;;;;;-6.05;100.00;94429.34;1039142;28;20022;-67
2022/12/14 03:21:24;;;;;;;31.05;15.35;;;;;;;-6.05;100.00;94425.03;1035389;28;20021;-68
2022/12/14 03:21:56;;;;;;;34.15;15.68;;;;;;;-6.03;100.00;94422.28;1035359;28;20022;-67
2022/12/14 03:22:42;;;;;;;31.80;15.38;;;;;;;-6.05;100.00;94425.03;1039616;28;20021;-68
2022/12/14 03:23:23;;;;;;;28.33;14.48;;;;;;;-6.06;100.00;94428.56;1031267;28;20595;-68
2022/12/14 03:23:54;;;;;;;27.58;14.70;;;;;;;-6.06;100.00;94422.66;1031637;28;20074;-66
2022/12/14 03:24:28;;;;;;;30.50;14.87;;;;;;;-6.04;100.00;94430.91;1035282;28;20080;-67
2022/12/14 03:25:01;;;;;;;33.08;15.38;;;;;;;-6.08;100.00;94425.41;1037207;28;20140;-68
2022/12/14 03:25:41;;;;;;;30.55;14.65;;;;;;;-6.06;100.00;94420.91;1038880;28;20589;-66
2022/12/14 03:26:16;;;;;;;38.45;16.88;;;;;;;-6.13;100.00;94422.66;1036660;28;20416;-66
2022/12/14 03:26:51;;;;;;;26.45;15.05;;;;;;;-6.14;100.00;94417.72;1033213;28;20026;-67
2022/12/14 03:27:23;;;;;;;31.60;15.30;;;;;;;-6.08;100.00;94419.50;1032850;28;20499;-65
2022/12/14 03:28:10;;;;;;;32.25;14.57;;;;;;;-6.11;100.00;94423.22;1026999;28;20034;-67
2022/12/14 03:28:48;;;;;;;34.38;15.60;;;;;;;-6.10;100.00;94427.38;1034201;28;20109;-68
2022/12/14 03:29:30;;;;;;;31.52;15.50;;;;;;;-6.06;100.00;94423.47;1038815;28;20090;-68
2022/12/14 03:30:12;;;;;;;33.50;16.40;;;;;;;-6.04;100.00;94429.13;1042339;28;20009;-67
2022/12/14 03:30:44;;;;;;;34.08;15.43;;;;;;;-6.10;100.00;94429.94;1031711;28;20082;-68
2022/12/14 03:31:38;;;;;;;34.40;16.25;;;;;;;-6.04;100.00;94426.59;1026853;28;20025;-68
2022/12/14 03:32:10;;;;;;;27.83;14.25;;;;;;;-6.09;100.00;94416.19;1034285;28;20058;-67
2022/12/14 03:32:48;;;;;;;29.23;15.70;;;;;;;-6.03;100.00;94428.19;1038015;28;20087;-67
2022/12/14 03:33:20;;;;;;;28.08;15.82;;;;;;;-6.03;100.00;94424.84;1034604;28;20014;-67
2022/12/14 03:33:50;;;;;;;34.20;16.02;;;;;;;-6.06;100.00;94426.00;1030762;28;20018;-67
2022/12/14 03:34:43;;;;;;;31.23;15.30;;;;;;;-6.08;100.00;94422.84;1031144;28;20014;-67
2022/12/14 03:35:33;;;;;;;30.48;15.60;;;;;;;-6.05;100.00;94424.25;1030921;28;20014;-67
2022/12/14 03:36:20;;;;;;;32.22;15.23;;;;;;;-6.07;100.00;94421.88;1027492;28;20528;-65
2022/12/14 03:36:58;;;;;;;30.85;15.48;;;;;;;-6.03;100.00;94425.63;1030538;28;20022;-67
2022/12/14 03:37:37;;;;;;;32.45;14.75;;;;;;;-5.97;100.00;94424.06;1034734;28;20014;-67
2022/12/14 03:38:26;;;;;;;31.75;15.27;;;;;;;-6.00;100.00;94424.44;1030550;28;20022;-67
2022/12/14 03:38:57;;;;;;;30.48;15.15;;;;;;;-6.05;100.00;94424.25;1026877;28;20027;-66
2022/12/14 03:39:31;;;;;;;31.67;15.10;;;;;;;-6.03;100.00;94423.06;1026386;28;20503;-67
2022/12/14 03:40:01;;;;;;;31.20;15.35;;;;;;;-6.02;100.00;94428.97;1025171;28;20316;-66
2022/12/14 03:40:35;;;;;;;29.53;14.23;;;;;;;-6.07;100.00;94424.44;1022879;29;20429;-69
2022/12/14 03:41:08;;;;;;;29.25;14.50;;;;;;;-6.04;100.00;94433.47;1022692;29;20019;-67
2022/12/14 03:41:48;;;;;;;35.38;16.45;;;;;;;-6.11;100.00;94420.69;1025101;28;20030;-67
2022/12/14 03:42:41;;;;;;;32.10;15.07;;;;;;;-6.12;100.00;94419.09;1038416;28;20041;-67
2022/12/14 03:43:26;;;;;;;35.67;15.60;;;;;;;-6.10;100.00;94427.38;1034731;28;20036;-67
2022/12/14 03:44:11;;;;;;;29.42;14.77;;;;;;;-6.09;100.00;94423.84;1030660;28;20487;-69
2022/12/14 03:44:51;;;;;;;32.78;15.50;;;;;;;-6.05;100.00;94432.69;1031129;28;20021;-66
2022/12/14 03:45:37;;;;;;;30.45;15.18;;;;;;;-6.11;100.00;94420.69;1026467;28;20446;-66
2022/12/14 03:46:17;;;;;;;29.40;15.38;;;;;;;-6.05;100.00;94421.69;1034461;28;20017;-66
2022/12/14 03:47:24;;;;;;;27.70;13.77;;;;;;;-6.06;100.00;94426.00;1030877;28;20106;-67
2022/12/14 03:48:19;;;;;;;35.25;16.10;;;;;;;-6.08;100.00;94430.50;1034619;28;20028;-69
2022/12/14 03:48:51;;;;;;;34.72;15.23;;;;;;;-6.05;100.00;94435.22;1038883;28;20531;-67
2022/12/14 03:49:48;;;;;;;27.70;14.75;;;;;;;-6.02;100.00;94434.84;1026521;28;20023;-67
2022/12/14 03:50:26;;;;;;;34.72;15.70;;;;;;;-6.08;100.00;94429.72;1026684;28;20135;-67
2022/12/14 03:51:08;;;;;;;31.70;16.27;;;;;;;-6.03;100.00;94435.84;1034143;28;20022;-64
2022/12/14 03:51:59;;;;;;;30.52;15.45;;;;;;;-6.05;100.00;94427.56;1038645;28;20041;-67
2022/12/14 03:52:36;;;;;;;33.65;15.63;;;;;;;-6.06;100.00;94428.56;1034679;28;20056;-67
2022/12/14 03:53:39;;;;;;;30.73;14.80;;;;;;;-6.07;100.00;94426.19;1026575;28;20483;-66
2022/12/14 03:54:20;;;;;;;30.23;15.93;;;;;;;-6.06;100.00;94426.00;1027078;28;20460;-68
2022/12/14 03:55:03;;;;;;;31.00;14.48;;;;;;;-6.06;100.00;94423.47;1028438;28;20159;-68
2022/12/14 03:55:55;;;;;;;37.15;15.75;;;;;;;-6.02;100.00;94422.09;1030185;28;20093;-67
2022/12/14 03:56:47;;;;;;;34.58;16.15;;;;;;;-6.03;100.00;94430.72;1034722;28;20092;-67
2022/12/14 03:57:40;;;;;;;32.85;14.88;;;;;;;-6.03;100.00;94428.19;1034562;28;20033;-64
2022/12/14 03:58:27;;;;;;;32.70;15.23;;;;;;;-5.97;100.00;94431.72;1031843;28;20475;-69
2022/12/14 03:58:58;;;;;;;29.98;14.80;;;;;;;-5.94;100.00;94428.78;1030978;28;20116;-66
2022/12/14 03:59:42;;;;;;;32.85;16.35;;;;;;;-5.97;100.00;94424.88;1041994;28;20068;-67
2022/12/14 04:00:20;;;;;;;28.67;14.95;;;;;;;-6.02;100.00;94418.75;1038675;28;20025;-68
2022/12/14 04:00:56;;;;;;;33.17;15.63;;;;;;;-5.96;100.00;94423.88;1042182;28;20031;-66
2022/12/14 04:01:48;;;;;;;30.50;14.40;;;;;;;-6.02;100.00;94421.31;1042445;28;20036;-69
2022/12/14 04:02:51;;;;;;;34.40;15.32;;;;;;;-6.00;100.00;94421.88;1038493;28;20160;-67
2022/12/14 04:03:33;;;;;;;35.92;15.30;;;;;;;-6.00;100.00;94422.69;1037757;28;20021;-67
2022/12/14 04:04:09;;;;;;;30.05;15.38;;;;;;;-5.99;100.00;94419.16;1032312;28;20018;-67
2022/12/14 04:04:49;;;;;;;31.45;14.85;;;;;;;-6.02;100.00;94416.97;1030806;28;20018;-68
2022/12/14 04:05:41;;;;;;;34.17;15.20;;;;;;;-6.05;100.00;94414.81;1026625;28;20019;-67
2022/12/14 04:06:49;;;;;;;29.52;14.68;;;;;;;-5.97;100.00;94417.19;1033364;28;20018;-65
2022/12/14 04:07:48;;;;;;;29.27;13.57;;;;;;;-6.04;100.00;94416.38;1026252;28;20054;-66
2022/12/14 04:08:53;;;;;;;28.50;13.40;;;;;;;-6.05;100.00;94414.81;1035530;28;20089;-67
2022/12/14 04:09:54;;;;;;;31.02;15.18;;;;;;;-6.07;100.00;94416.78;1025891;28;20022;-68
2022/12/14 04:19:28;;;;;;;33.40;15.75;;;;;;;-6.06;100.00;94403.03;1034534;28;20404;-67
2022/12/14 04:20:18;;;;;;;33.13;15.40;;;;;;;-6.06;100.00;94403.03;1028799;28;20097;-65
2022/12/14 04:21:18;;;;;;;27.50;15.07;;;;;;;-6.05;100.00;94404.59;1026374;28;20543;-67
2022/12/14 04:21:57;;;;;;;35.53;16.55;;;;;;;-6.03;100.00;94397.53;1035658;28;20500;-67
2022/12/14 04:22:29;;;;;;;32.42;16.10;;;;;;;-6.04;100.00;94398.50;1028471;28;20110;-67
2022/12/14 04:23:08;;;;;;;32.95;16.42;;;;;;;-6.00;100.00;94392.06;1022148;28;20020;-67
2022/12/14 04:26:28;;;;;;;35.13;15.88;;;;;;;-5.98;100.00;94384.97;1038517;28;20013;-68
2022/12/14 04:27:05;;;;;;;31.48;15.15;;;;;;;-5.99;100.00;94380.06;1030339;28;20030;-66
2022/12/14 04:27:47;;;;;;;37.40;16.38;;;;;;;-6.00;100.00;94375.91;1022649;29;20074;-67
2022/12/14 04:30:07;;;;;;;28.52;14.45;;;;;;;-5.95;100.00;94379.47;1025298;28;20476;-69
2022/12/14 04:30:38;;;;;;;29.30;15.20;;;;;;;-5.96;100.00;94377.91;1024825;28;20089;-67
2022/12/14 04:31:11;;;;;;;33.37;16.10;;;;;;;-5.95;100.00;94386.34;1026410;28;20035;-66
2022/12/14 04:31:44;;;;;;;31.17;15.65;;;;;;;-5.94;100.00;94382.81;1028820;28;20062;-66
2022/12/14 04:32:35;;;;;;;35.22;17.20;;;;;;;-5.93;100.00;94389.50;1022551;29;20031;-67
2022/12/14 04:33:45;;;;;;;35.20;16.00;;;;;;;-6.00;100.00;94375.91;1019233;28;20050;-67
2022/12/14 04:33:57;;;;;;;30.95;15.38;;;;;;;-6.01;100.00;94376.91;1041539;28;20013;-67
2022/12/14 04:34:28;;;;;;;33.40;15.77;;;;;;;-6.00;100.00;94384.41;1038478;28;20288;-65
2022/12/14 04:35:08;;;;;;;37.88;18.05;;;;;;;-5.97;100.00;94385.75;1038392;28;20029;-67
2022/12/14 04:35:41;;;;;;;38.15;16.88;;;;;;;-5.93;100.00;94382.63;1037791;28;20107;-67
2022/12/14 04:36:19;;;;;;;34.55;17.48;;;;;;;-5.98;100.00;94384.97;1040294;28;20076;-67
2022/12/14 04:36:54;;;;;;;30.27;15.23;;;;;;;-6.02;100.00;94381.22;1041306;28;20025;-66
2022/12/14 04:37:25;;;;;;;28.30;14.30;;;;;;;-5.97;100.00;94380.66;1032261;28;20534;-66
2022/12/14 04:38:15;;;;;;;36.43;16.27;;;;;;;-5.95;100.00;94383.81;1030230;28;20022;-68
2022/12/14 04:38:45;;;;;;;32.75;16.40;;;;;;;-5.96;100.00;94388.13;1030738;28;20014;-67
2022/12/14 04:39:26;;;;;;;36.67;17.17;;;;;;;-6.05;100.00;94379.06;1026125;28;20022;-67
2022/12/14 04:40:04;;;;;;;39.75;18.02;;;;;;;-5.94;100.00;94382.81;1027002;28;20027;-66
2022/12/14 04:40:55;;;;;;;32.30;16.35;;;;;;;-5.94;100.00;94381.03;1026464;28;20393;-66
2022/12/14 04:41:27;;;;;;;34.75;16.20;;;;;;;-5.87;100.00;94382.78;1030646;28;20057;-70
2022/12/14 04:41:58;;;;;;;33.30;16.80;;;;;;;-5.87;100.00;94380.25;1030089;28;20472;-68
2022/12/14 04:42:33;;;;;;;33.03;16.33;;;;;;;-5.86;100.00;94379.28;1026461;28;20023;-66
2022/12/14 04:43:14;;;;;;;33.03;17.00;;;;;;;-5.86;100.00;94381.84;1030704;28;20065;-67
2022/12/14 04:43:45;;;;;;;29.65;15.88;;;;;;;-5.83;100.00;94378.91;1029813;28;20835;-66
2022/12/14 04:44:20;;;;;;;29.90;15.17;;;;;;;-5.84;100.00;94374.75;1026802;28;20030;-68
2022/12/14 04:44:52;;;;;;;33.92;16.27;;;;;;;-5.82;100.00;94371.03;1030529;28;20483;-67
2022/12/14 04:45:32;;;;;;;32.45;16.50;;;;;;;-5.80;100.00;94369.06;1026409;28;20035;-67
2022/12/14 04:46:07;;;;;;;34.42;16.15;;;;;;;-5.81;100.00;94374.34;1026130;28;20650;-67
2022/12/14 04:46:37;;;;;;;34.50;16.77;;;;;;;-5.84;100.00;94367.09;1029993;28;20060;-65
2022/12/14 04:47:09;;;;;;;35.03;16.90;;;;;;;-5.82;100.00;94365.13;1030774;28;20030;-67
2022/12/14 04:47:43;;;;;;;33.47;15.63;;;;;;;-5.82;100.00;94371.03;1030510;28;20408;-66
2022/12/14 04:48:30;;;;;;;33.47;15.27;;;;;;;-5.86;100.00;94361.41;1034250;28;20041;-67
2022/12/14 04:49:10;;;;;;;34.65;16.67;;;;;;;-5.79;100.00;94364.75;1030401;28;20434;-68
2022/12/14 04:49:46;;;;;;;34.42;16.33;;;;;;;-5.79;100.00;94351.97;1034974;28;20032;-69
2022/12/14 04:50:44;;;;;;;32.13;15.40;;;;;;;-5.76;100.00;94359.25;1030299;28;20472;-69
2022/12/14 04:51:56;;;;;;;32.85;16.70;;;;;;;-5.71;100.00;94355.09;1019093;29;20115;-69
2022/12/14 04:52:31;;;;;;;29.42;14.63;;;;;;;-5.66;100.00;94349.44;1027926;28;20015;-67
2022/12/14 04:53:10;;;;;;;31.83;15.05;;;;;;;-5.68;100.00;94344.50;1026513;28;20027;-67
2022/12/14 04:53:41;;;;;;;34.22;16.13;;;;;;;-5.75;100.00;94338.59;1027108;28;20022;-68
2022/12/14 04:54:31;;;;;;;30.63;15.45;;;;;;;-5.73;100.00;94346.09;1034264;28;20033;-67
2022/12/14 04:55:07;;;;;;;31.60;16.60;;;;;;;-5.70;100.00;94345.66;1030579;28;20857;-66
2022/12/14 04:55:42;;;;;;;30.33;15.30;;;;;;;-5.68;100.00;94348.81;1029019;28;20018;-67
2022/12/14 04:56:19;;;;;;;33.55;15.77;;;;;;;-5.72;100.00;94343.31;1031922;28;20018;-67
2022/12/14 04:56:55;;;;;;;39.47;17.20;;;;;;;-5.74;100.00;94344.50;1030709;28;20045;-67
2022/12/14 04:57:37;;;;;;;37.28;16.15;;;;;;;-5.69;100.00;94348.03;1030867;28;20022;-67
2022/12/14 04:58:26;;;;;;;33.63;16.65;;;;;;;-5.71;100.00;94344.09;1035230;28;20704;-66
2022/12/14 04:58:57;;;;;;;33.10;15.82;;;;;;;-5.72;100.00;94338.22;1026622;28;20038;-65
2022/12/14 04:59:27;;;;;;;30.40;15.77;;;;;;;-5.72;100.00;94340.78;1033210;28;20030;-66
2022/12/14 04:59:58;;;;;;;32.20;16.00;;;;;;;-5.73;100.00;94336.66;1030427;28;20022;-67
2022/12/14 05:00:29;;;;;;;33.20;16.60;;;;;;;-5.73;100.00;94341.75;1024058;28;20523;-67
2022/12/14 05:01:27;;;;;;;33.97;16.92;;;;;;;-5.70;100.00;94346.47;1030226;28;20059;-66
2022/12/14 05:02:27;;;;;;;33.25;15.15;;;;;;;-5.77;100.00;94350.00;1030506;28;20052;-65
2022/12/14 05:03:03;;;;;;;33.25;15.90;;;;;;;-5.74;100.00;94339.38;1026298;28;20019;-65
2022/12/14 05:03:41;;;;;;;30.45;15.13;;;;;;;-5.79;100.00;94340.00;1027305;28;20030;-66
2022/12/14 05:04:18;;;;;;;34.15;17.00;;;;;;;-5.71;100.00;94351.78;1030528;28;20026;-67
2022/12/14 05:05:33;;;;;;;34.22;16.10;;;;;;;-5.73;100.00;94343.53;1033372;28;20033;-66
2022/12/14 05:06:15;;;;;;;31.98;15.68;;;;;;;-5.73;100.00;94356.31;1021658;28;20559;-67
2022/12/14 05:06:58;;;;;;;28.75;15.27;;;;;;;-5.75;100.00;94353.16;1046274;28;20478;-66
2022/12/14 05:07:52;;;;;;;31.60;15.80;;;;;;;-5.80;100.00;94351.19;1047511;28;20088;-67
2022/12/14 05:08:36;;;;;;;32.25;16.50;;;;;;;-5.77;100.00;94348.25;1038847;28;20342;-66
2022/12/14 05:09:17;;;;;;;33.00;14.05;;;;;;;-5.86;100.00;94354.53;1030672;28;20073;-67
2022/12/14 05:09:54;;;;;;;40.92;16.70;;;;;;;-5.84;100.00;94350.00;1034308;28;20557;-67
2022/12/14 05:10:36;;;;;;;33.58;16.70;;;;;;;-5.81;100.00;94351.38;1038324;28;20059;-67
2022/12/14 05:11:15;;;;;;;36.03;16.95;;;;;;;-5.76;100.00;94359.25;1036831;28;20025;-68
2022/12/14 05:11:55;;;;;;;36.78;17.20;;;;;;;-5.74;100.00;94350.38;1038401;28;20691;-66
2022/12/14 05:12:27;;;;;;;32.13;16.08;;;;;;;-5.68;100.00;94351.38;1034259;28;20026;-67
2022/12/14 05:13:02;;;;;;;30.63;15.52;;;;;;;-5.64;100.00;94352.56;1034350;28;20034;-67
2022/12/14 05:13:39;;;;;;;34.85;17.27;;;;;;;-5.62;100.00;94353.16;1029374;28;20092;-69
2022/12/14 05:14:13;;;;;;;35.50;18.38;;;;;;;-5.67;100.00;94345.28;1026274;28;20138;-69
2022/12/14 05:14:47;;;;;;;38.33;17.67;;;;;;;-5.64;100.00;94344.88;1028418;28;20025;-66
2022/12/14 05:15:22;;;;;;;32.28;17.58;;;;;;;-5.63;100.00;94345.66;1034292;28;20232;-66
2022/12/14 05:15:55;;;;;;;32.05;16.65;;;;;;;-5.71;100.00;94339.00;1023953;28;20046;-69
2022/12/14 05:16:25;;;;;;;38.00;17.97;;;;;;;-5.70;100.00;94350.78;1025697;28;20033;-67
2022/12/14 05:16:56;;;;;;;30.67;15.80;;;;;;;-5.76;100.00;94343.94;1022847;29;20027;-68
2022/12/14 05:17:26;;;;;;;31.40;16.47;;;;;;;-5.69;100.00;94350.59;1020020;29;20709;-67
2022/12/14 05:18:01;;;;;;;31.43;16.47;;;;;;;-5.65;100.00;94352.75;1028656;28;20061;-67
2022/12/14 05:18:34;;;;;;;31.73;15.82;;;;;;;-5.71;100.00;94344.88;1027572;28;20045;-67
2022/12/14 05:19:08;;;;;;;33.33;15.40;;;;;;;-5.77;100.00;94347.44;1023263;28;20035;-67
2022/12/14 05:19:45;;;;;;;36.38;16.52;;;;;;;-5.74;100.00;94352.16;1027930;28;20055;-69
2022/12/14 05:20:21;;;;;;;32.63;17.08;;;;;;;-5.69;100.00;94345.50;1030304;28;20042;-67
2022/12/14 05:20:51;;;;;;;34.53;16.20;;;;;;;-5.66;100.00;94351.19;1030498;28;20045;-68
2022/12/14 05:22:11;;;;;;;32.70;16.13;;;;;;;-5.66;100.00;94344.31;1033584;28;20030;-68
2022/12/14 05:22:41;;;;;;;39.40;18.97;;;;;;;-5.66;100.00;94341.75;1033043;28;20018;-68
2022/12/14 05:23:12;;;;;;;33.77;18.43;;;;;;;-5.66;100.00;94341.75;1030229;28;20037;-67
2022/12/14 05:23:42;;;;;;;40.50;19.40;;;;;;;-5.61;100.00;94341.16;1025923;28;20102;-68
2022/12/14 05:24:13;;;;;;;33.57;17.57;;;;;;;-5.68;100.00;94330.94;1021907;28;20058;-67
2022/12/14 05:24:43;;;;;;;33.70;17.57;;;;;;;-5.62;100.00;94337.81;1026056;28;20064;-67
2022/12/14 05:25:14;;;;;;;34.47;17.07;;;;;;;-5.59;100.00;94340.00;1030370;28;20015;-67
2022/12/14 05:25:45;;;;;;;38.27;19.23;;;;;;;-5.63;100.00;94331.16;1031861;28;20018;-67
2022/12/14 05:26:15;;;;;;;30.53;16.93;;;;;;;-5.60;100.00;94345.28;1026132;28;20018;-64
2022/12/14 05:26:46;;;;;;;39.33;18.67;;;;;;;-5.63;100.00;94331.16;1026752;28;20130;-67
2022/12/14 05:27:16;;;;;;;33.07;17.77;;;;;;;-5.63;100.00;94336.25;1034104;28;20025;-67
2022/12/14 05:27:46;;;;;;;34.67;18.70;;;;;;;-5.57;100.00;94325.22;1034192;28;20029;-67
2022/12/14 05:28:17;;;;;;;37.90;17.90;;;;;;;-5.55;100.00;94322.50;1038371;28;20414;-68
2022/12/14 05:28:47;;;;;;;36.07;17.80;;;;;;;-5.56;100.00;94326.03;1031970;28;20058;-67
2022/12/14 05:29:21;;;;;;;32.97;17.10;;;;;;;-5.57;100.00;94335.44;1029847;28;20476;-64
2022/12/14 05:29:51;;;;;;;35.58;17.42;;;;;;;-5.62;100.00;94330.16;1028066;28;20108;-67
2022/12/14 05:30:22;;;;;;;30.07;15.93;;;;;;;-5.63;100.00;94331.16;1023704;28;20032;-70
2022/12/14 05:30:52;;;;;;;32.80;16.57;;;;;;;-5.63;100.00;94330.34;1031727;28;20037;-68
2022/12/14 05:31:23;;;;;;;36.17;17.13;;;;;;;-5.67;100.00;94329.94;1024701;28;20039;-68
2022/12/14 05:31:54;;;;;;;35.50;16.57;;;;;;;-5.63;100.00;94326.03;1029467;28;20404;-70
2022/12/14 05:32:25;;;;;;;34.57;16.93;;;;;;;-5.76;100.00;94318.38;1024748;28;20309;-66
2022/12/14 05:32:55;;;;;;;35.20;17.00;;;;;;;-5.72;100.00;94322.88;1028639;28;20519;-68
2022/12/14 05:33:25;;;;;;;36.80;17.80;;;;;;;-5.72;100.00;94322.88;1023848;28;20027;-69
2022/12/14 05:33:56;;;;;;;34.70;16.23;;;;;;;-5.70;100.00;94320.13;1023549;28;20019;-66
2022/12/14 05:34:26;;;;;;;31.23;16.07;;;;;;;-5.73;100.00;94318.00;1030522;28;20034;-67
2022/12/14 05:34:57;;;;;;;36.87;18.83;;;;;;;-5.70;100.00;94320.13;1037454;28;20608;-68
2022/12/14 05:35:27;;;;;;;30.77;16.77;;;;;;;-5.66;100.00;94323.88;1037814;28;20041;-64
2022/12/14 05:35:58;;;;;;;36.07;16.83;;;;;;;-5.73;100.00;94313.66;1038129;28;20486;-67
2022/12/14 05:36:28;;;;;;;35.80;16.37;;;;;;;-5.68;100.00;94318.16;1034560;28;20038;-67
2022/12/14 05:36:59;;;;;;;35.33;17.00;;;;;;;-5.72;100.00;94315.22;1034473;28;20026;-67
2022/12/14 05:37:29;;;;;;;33.33;16.80;;;;;;;-5.69;100.00;94317.38;1033482;28;20403;-67
2022/12/14 05:38:00;;;;;;;32.73;17.03;;;;;;;-5.67;100.00;94314.63;1030223;28;20026;-66
2022/12/14 05:38:30;;;;;;;38.70;18.77;;;;;;;-5.65;100.00;94317.78;1031033;28;20286;-66
2022/12/14 05:39:00;;;;;;;33.27;17.13;;;;;;;-5.66;100.00;94316.22;1026769;28;20027;-66
2022/12/14 05:39:31;;;;;;;35.30;16.87;;;;;;;-5.72;100.00;94312.66;1030437;28;20030;-67